Terminal Aerodrome Forecast
Issued by NWS

Current Version | Previous Version | Text Only | Print | Product List | Glossary Off
Versions: 1 2 3 4 5 6 7 8 9 10 11 12 13 14 15 16 17 18 19 20 21 22 23 24 25 26 27 28 29

000
FTUS41 KILN 290121 AAA
TAFLCK
TAF AMD
KLCK 290121Z 2901/2924 00000KT 5SM BR SCT050 BKN070 OVC080
     FM290600 34004KT 3SM BR OVC020
     FM290900 34003KT 2SM BR OVC008
     FM291300 32005KT 5SM BR OVC015
     FM291600 28006KT P6SM BKN025=

USA.gov is the U.S. government's official web portal to all federal, state and local government web resources and services.